sensor_id;sensor_type;location;lat;lon;timestamp;pressure;altitude;pressure_sealevel;temperature;humidity
55424;BME280;41294;42.666;23.350;2022-07-29T00:00:59;95170.19;;;20.39;95.12
55424;BME280;41294;42.666;23.350;2022-07-29T00:03:25;95176.19;;;20.50;94.20
55424;BME280;41294;42.666;23.350;2022-07-29T00:05:50;95180.31;;;20.51;94.54
55424;BME280;41294;42.666;23.350;2022-07-29T00:08:18;95187.50;;;20.67;93.26
55424;BME280;41294;42.666;23.350;2022-07-29T00:10:43;95197.03;;;20.63;93.26
55424;BME280;41294;42.666;23.350;2022-07-29T00:13:09;95188.97;;;20.68;92.91
55424;BME280;41294;42.666;23.350;2022-07-29T00:15:34;95201.44;;;20.60;92.89
55424;BME280;41294;42.666;23.350;2022-07-29T00:18:00;95195.41;;;20.54;93.28
55424;BME280;41294;42.666;23.350;2022-07-29T00:20:25;95197.63;;;20.45;93.32
55424;BME280;41294;42.666;23.350;2022-07-29T00:22:51;95201.78;;;20.40;93.57
55424;BME280;41294;42.666;23.350;2022-07-29T00:25:17;95195.50;;;20.32;94.22
55424;BME280;41294;42.666;23.350;2022-07-29T00:27:42;95189.00;;;20.22;94.36
55424;BME280;41294;42.666;23.350;2022-07-29T00:30:08;95191.88;;;20.24;94.94
55424;BME280;41294;42.666;23.350;2022-07-29T00:32:33;95186.78;;;20.26;94.86
55424;BME280;41294;42.666;23.350;2022-07-29T00:35:00;95185.03;;;20.34;93.89
55424;BME280;41294;42.666;23.350;2022-07-29T00:37:44;95185.31;;;20.25;94.72
55424;BME280;41294;42.666;23.350;2022-07-29T00:40:09;95200.28;;;20.45;94.01
55424;BME280;41294;42.666;23.350;2022-07-29T00:42:42;95191.88;;;20.70;93.50
55424;BME280;41294;42.666;23.350;2022-07-29T00:45:08;95188.41;;;20.86;93.57
55424;BME280;41294;42.666;23.350;2022-07-29T00:47:34;95191.47;;;21.01;93.67
55424;BME280;41294;42.666;23.350;2022-07-29T00:49:59;95197.53;;;21.01;94.06
55424;BME280;41294;42.666;23.350;2022-07-29T00:52:25;95203.09;;;21.09;93.85
55424;BME280;41294;42.666;23.350;2022-07-29T00:54:50;95196.72;;;21.12;94.25
55424;BME280;41294;42.666;23.350;2022-07-29T00:57:16;95199.91;;;21.10;94.77
55424;BME280;41294;42.666;23.350;2022-07-29T00:59:41;95207.22;;;21.10;94.75
55424;BME280;41294;42.666;23.350;2022-07-29T01:02:07;95199.72;;;21.03;95.00
55424;BME280;41294;42.666;23.350;2022-07-29T01:04:32;95193.88;;;21.04;94.61
55424;BME280;41294;42.666;23.350;2022-07-29T01:07:00;95185.41;;;20.95;94.29
55424;BME280;41294;42.666;23.350;2022-07-29T01:09:26;95190.50;;;20.98;94.11
55424;BME280;41294;42.666;23.350;2022-07-29T01:11:53;95188.66;;;20.82;94.79
55424;BME280;41294;42.666;23.350;2022-07-29T01:14:18;95196.44;;;20.86;94.98
55424;BME280;41294;42.666;23.350;2022-07-29T01:16:51;95185.97;;;20.88;95.18
55424;BME280;41294;42.666;23.350;2022-07-29T01:30:33;95180.47;;;20.69;96.46
55424;BME280;41294;42.666;23.350;2022-07-29T01:33:03;95181.72;;;20.63;96.62
55424;BME280;41294;42.666;23.350;2022-07-29T01:35:36;95187.50;;;20.67;96.64
55424;BME280;41294;42.666;23.350;2022-07-29T01:38:13;95169.50;;;20.78;96.22
55424;BME280;41294;42.666;23.350;2022-07-29T01:40:46;95164.97;;;20.57;97.08
55424;BME280;41294;42.666;23.350;2022-07-29T01:43:16;95165.88;;;20.30;98.47
55424;BME280;41294;42.666;23.350;2022-07-29T01:45:48;95172.56;;;19.96;100.00
55424;BME280;41294;42.666;23.350;2022-07-29T01:48:23;95174.06;;;19.76;100.00
55424;BME280;41294;42.666;23.350;2022-07-29T01:51:00;95170.38;;;19.89;100.00
55424;BME280;41294;42.666;23.350;2022-07-29T01:53:36;95170.63;;;19.97;100.00
55424;BME280;41294;42.666;23.350;2022-07-29T01:56:04;95169.31;;;20.14;100.00
55424;BME280;41294;42.666;23.350;2022-07-29T01:58:32;95174.63;;;20.25;100.00
55424;BME280;41294;42.666;23.350;2022-07-29T02:01:00;95167.81;;;20.24;100.00
55424;BME280;41294;42.666;23.350;2022-07-29T02:03:28;95169.78;;;20.24;100.00
55424;BME280;41294;42.666;23.350;2022-07-29T02:05:56;95158.78;;;20.33;100.00
55424;BME280;41294;42.666;23.350;2022-07-29T02:08:23;95154.97;;;20.17;100.00
55424;BME280;41294;42.666;23.350;2022-07-29T02:10:51;95159.38;;;20.15;100.00
55424;BME280;41294;42.666;23.350;2022-07-29T02:13:18;95153.94;;;20.31;100.00
55424;BME280;41294;42.666;23.350;2022-07-29T02:15:46;95150.00;;;20.38;100.00
55424;BME280;41294;42.666;23.350;2022-07-29T02:18:18;95144.91;;;20.34;100.00
55424;BME280;41294;42.666;23.350;2022-07-29T02:20:48;95143.00;;;20.29;100.00
55424;BME280;41294;42.666;23.350;2022-07-29T02:23:19;95151.00;;;20.35;100.00
55424;BME280;41294;42.666;23.350;2022-07-29T02:25:49;95152.38;;;20.47;100.00
55424;BME280;41294;42.666;23.350;2022-07-29T02:28:17;95155.03;;;20.52;100.00
55424;BME280;41294;42.666;23.350;2022-07-29T02:30:43;95147.75;;;20.53;100.00
55424;BME280;41294;42.666;23.350;2022-07-29T02:33:12;95150.66;;;20.49;100.00
55424;BME280;41294;42.666;23.350;2022-07-29T02:35:39;95157.94;;;20.54;99.59
55424;BME280;41294;42.666;23.350;2022-07-29T02:38:06;95143.88;;;20.48;100.00
55424;BME280;41294;42.666;23.350;2022-07-29T02:40:53;95137.97;;;20.15;100.00
55424;BME280;41294;42.666;23.350;2022-07-29T02:43:20;95132.06;;;19.71;100.00
55424;BME280;41294;42.666;23.350;2022-07-29T02:45:47;95123.84;;;19.58;100.00
55424;BME280;41294;42.666;23.350;2022-07-29T02:48:16;95127.75;;;19.46;100.00
55424;BME280;41294;42.666;23.350;2022-07-29T02:50:48;95122.22;;;19.33;100.00
55424;BME280;41294;42.666;23.350;2022-07-29T02:53:18;95129.97;;;19.42;100.00
55424;BME280;41294;42.666;23.350;2022-07-29T02:55:58;95129.91;;;19.64;100.00
55424;BME280;41294;42.666;23.350;2022-07-29T02:58:27;95128.00;;;19.53;100.00
55424;BME280;41294;42.666;23.350;2022-07-29T03:00:56;95123.63;;;19.50;100.00
55424;BME280;41294;42.666;23.350;2022-07-29T03:03:25;95126.78;;;19.49;100.00
55424;BME280;41294;42.666;23.350;2022-07-29T03:05:57;95134.56;;;19.47;100.00
55424;BME280;41294;42.666;23.350;2022-07-29T03:08:25;95126.06;;;19.48;100.00
55424;BME280;41294;42.666;23.350;2022-07-29T03:10:52;95127.75;;;19.46;100.00
55424;BME280;41294;42.666;23.350;2022-07-29T03:13:19;95127.50;;;19.49;100.00
55424;BME280;41294;42.666;23.350;2022-07-29T03:15:45;95130.41;;;19.62;100.00
55424;BME280;41294;42.666;23.350;2022-07-29T03:18:12;95136.00;;;19.59;100.00
55424;BME280;41294;42.666;23.350;2022-07-29T03:20:38;95141.63;;;19.39;100.00
55424;BME280;41294;42.666;23.350;2022-07-29T03:23:04;95139.47;;;19.32;100.00
55424;BME280;41294;42.666;23.350;2022-07-29T03:25:30;95133.16;;;19.24;100.00
55424;BME280;41294;42.666;23.350;2022-07-29T03:27:56;95141.63;;;19.33;100.00
55424;BME280;41294;42.666;23.350;2022-07-29T03:30:22;95140.94;;;19.11;100.00
55424;BME280;41294;42.666;23.350;2022-07-29T03:32:48;95143.13;;;19.12;100.00
55424;BME280;41294;42.666;23.350;2022-07-29T03:35:14;95137.50;;;19.27;100.00
55424;BME280;41294;42.666;23.350;2022-07-29T03:37:42;95143.09;;;19.40;100.00
55424;BME280;41294;42.666;23.350;2022-07-29T03:40:08;95144.72;;;19.54;100.00
55424;BME280;41294;42.666;23.350;2022-07-29T03:42:36;95143.47;;;19.77;100.00
55424;BME280;41294;42.666;23.350;2022-07-29T03:45:06;95141.94;;;19.92;100.00
55424;BME280;41294;42.666;23.350;2022-07-29T03:47:34;95153.53;;;20.11;100.00
55424;BME280;41294;42.666;23.350;2022-07-29T03:50:05;95162.22;;;20.28;100.00
55424;BME280;41294;42.666;23.350;2022-07-29T03:52:31;95150.91;;;20.51;99.45
55424;BME280;41294;42.666;23.350;2022-07-29T03:54:57;95162.34;;;20.52;99.20
55424;BME280;41294;42.666;23.350;2022-07-29T03:57:27;95158.63;;;20.60;98.70
55424;BME280;41294;42.666;23.350;2022-07-29T03:59:54;95158.38;;;20.58;99.11
55424;BME280;41294;42.666;23.350;2022-07-29T04:02:20;95164.22;;;20.62;98.39
55424;BME280;41294;42.666;23.350;2022-07-29T04:04:46;95158.38;;;20.58;98.53
55424;BME280;41294;42.666;23.350;2022-07-29T04:07:13;95165.38;;;21.07;96.89
55424;BME280;41294;42.666;23.350;2022-07-29T04:09:39;95168.44;;;21.93;93.04
55424;BME280;41294;42.666;23.350;2022-07-29T04:12:06;95166.81;;;23.14;88.60
55424;BME280;41294;42.666;23.350;2022-07-29T04:14:32;95163.16;;;23.29;83.91
55424;BME280;41294;42.666;23.350;2022-07-29T04:16:58;95159.78;;;23.94;80.44
55424;BME280;41294;42.666;23.350;2022-07-29T04:19:24;95157.22;;;23.88;81.39
55424;BME280;41294;42.666;23.350;2022-07-29T04:21:49;95155.06;;;24.46;77.94
55424;BME280;41294;42.666;23.350;2022-07-29T04:24:15;95156.72;;;25.02;75.79
55424;BME280;41294;42.666;23.350;2022-07-29T04:26:41;95150.00;;;25.37;73.65
55424;BME280;41294;42.666;23.350;2022-07-29T04:29:06;95148.25;;;25.39;73.14
55424;BME280;41294;42.666;23.350;2022-07-29T04:31:32;95145.31;;;25.58;72.17
55424;BME280;41294;42.666;23.350;2022-07-29T04:33:57;95147.38;;;25.72;70.88
55424;BME280;41294;42.666;23.350;2022-07-29T04:36:22;95165.69;;;25.94;70.25
55424;BME280;41294;42.666;23.350;2022-07-29T04:38:48;95157.00;;;26.16;67.73
55424;BME280;41294;42.666;23.350;2022-07-29T04:41:13;95161.69;;;26.23;66.85
55424;BME280;41294;42.666;23.350;2022-07-29T04:43:39;95164.59;;;26.82;65.93
55424;BME280;41294;42.666;23.350;2022-07-29T04:46:06;95167.56;;;27.29;64.44
55424;BME280;41294;42.666;23.350;2022-07-29T04:48:32;95164.03;;;26.62;65.60
55424;BME280;41294;42.666;23.350;2022-07-29T04:50:57;95170.81;;;27.20;63.72
55424;BME280;41294;42.666;23.350;2022-07-29T04:53:23;95162.16;;;27.29;63.58
55424;BME280;41294;42.666;23.350;2022-07-29T04:55:49;95173.72;;;27.67;62.65
55424;BME280;41294;42.666;23.350;2022-07-29T04:58:15;95169.47;;;26.76;63.78
55424;BME280;41294;42.666;23.350;2022-07-29T05:00:40;95174.22;;;26.05;67.14
55424;BME280;41294;42.666;23.350;2022-07-29T05:03:06;95170.13;;;26.55;65.41
55424;BME280;41294;42.666;23.350;2022-07-29T05:05:31;95167.38;;;27.12;63.38
55424;BME280;41294;42.666;23.350;2022-07-29T05:07:57;95177.66;;;27.51;61.73
55424;BME280;41294;42.666;23.350;2022-07-29T05:10:23;95174.91;;;27.96;60.23
55424;BME280;41294;42.666;23.350;2022-07-29T05:12:48;95171.38;;;27.41;62.03
55424;BME280;41294;42.666;23.350;2022-07-29T05:15:14;95179.44;;;28.01;60.26
55424;BME280;41294;42.666;23.350;2022-07-29T05:17:39;95172.63;;;27.40;61.81
55424;BME280;41294;42.666;23.350;2022-07-29T05:20:05;95170.94;;;26.92;62.36
55424;BME280;41294;42.666;23.350;2022-07-29T05:22:31;95184.19;;;26.68;63.94
55424;BME280;41294;42.666;23.350;2022-07-29T05:24:56;95179.41;;;26.96;62.66
55424;BME280;41294;42.666;23.350;2022-07-29T05:27:22;95183.25;;;26.51;64.66
55424;BME280;41294;42.666;23.350;2022-07-29T05:29:47;95182.38;;;27.36;61.26
55424;BME280;41294;42.666;23.350;2022-07-29T05:32:13;95181.66;;;25.84;66.32
55424;BME280;41294;42.666;23.350;2022-07-29T05:34:39;95176.41;;;27.15;62.80
55424;BME280;41294;42.666;23.350;2022-07-29T05:37:05;95178.16;;;28.63;58.17
55424;BME280;41294;42.666;23.350;2022-07-29T05:39:30;95170.00;;;28.09;58.58
55424;BME280;41294;42.666;23.350;2022-07-29T05:41:57;95180.28;;;28.72;57.76
55424;BME280;41294;42.666;23.350;2022-07-29T05:44:22;95186.59;;;28.82;57.52
55424;BME280;41294;42.666;23.350;2022-07-29T05:46:48;95174.41;;;27.90;58.88
55424;BME280;41294;42.666;23.350;2022-07-29T05:49:13;95185.13;;;28.42;58.80
55424;BME280;41294;42.666;23.350;2022-07-29T05:51:39;95184.88;;;27.34;60.06
55424;BME280;41294;42.666;23.350;2022-07-29T05:54:05;95172.94;;;26.92;60.19
55424;BME280;41294;42.666;23.350;2022-07-29T05:56:30;95176.94;;;26.13;63.39
55424;BME280;41294;42.666;23.350;2022-07-29T05:58:56;95179.16;;;25.38;66.22
55424;BME280;41294;42.666;23.350;2022-07-29T06:01:21;95182.53;;;26.15;64.29
55424;BME280;41294;42.666;23.350;2022-07-29T06:03:47;95185.19;;;26.93;61.83
55424;BME280;41294;42.666;23.350;2022-07-29T06:06:12;95183.94;;;28.06;59.40
55424;BME280;41294;42.666;23.350;2022-07-29T06:08:38;95185.06;;;27.65;59.02
55424;BME280;41294;42.666;23.350;2022-07-29T06:11:04;95184.00;;;27.68;59.66
55424;BME280;41294;42.666;23.350;2022-07-29T06:13:30;95191.41;;;27.68;60.32
55424;BME280;41294;42.666;23.350;2022-07-29T06:15:55;95188.94;;;26.32;63.08
55424;BME280;41294;42.666;23.350;2022-07-29T06:18:21;95190.09;;;25.81;65.47
55424;BME280;41294;42.666;23.350;2022-07-29T06:20:50;95186.09;;;25.54;66.24
55424;BME280;41294;42.666;23.350;2022-07-29T06:23:16;95189.22;;;25.86;65.35
55424;BME280;41294;42.666;23.350;2022-07-29T06:25:42;95184.34;;;26.12;65.02
55424;BME280;41294;42.666;23.350;2022-07-29T06:28:07;95180.78;;;26.67;63.03
55424;BME280;41294;42.666;23.350;2022-07-29T06:30:33;95189.41;;;26.59;63.46
55424;BME280;41294;42.666;23.350;2022-07-29T06:32:58;95188.25;;;25.56;67.63
55424;BME280;41294;42.666;23.350;2022-07-29T06:35:25;95187.44;;;26.24;65.08
55424;BME280;41294;42.666;23.350;2022-07-29T06:37:50;95179.84;;;27.15;63.89
55424;BME280;41294;42.666;23.350;2022-07-29T06:40:16;95178.03;;;27.85;60.78
55424;BME280;41294;42.666;23.350;2022-07-29T06:43:00;95172.97;;;27.44;61.70
55424;BME280;41294;42.666;23.350;2022-07-29T06:45:26;95174.38;;;27.00;63.76
55424;BME280;41294;42.666;23.350;2022-07-29T06:47:51;95177.59;;;26.91;63.44
55424;BME280;41294;42.666;23.350;2022-07-29T06:50:17;95175.19;;;27.68;60.91
55424;BME280;41294;42.666;23.350;2022-07-29T06:52:42;95184.50;;;28.58;58.14
55424;BME280;41294;42.666;23.350;2022-07-29T06:55:08;95169.28;;;26.74;63.19
55424;BME280;41294;42.666;23.350;2022-07-29T06:57:34;95184.81;;;26.03;66.10
55424;BME280;41294;42.666;23.350;2022-07-29T06:59:59;95170.09;;;27.79;60.80
55424;BME280;41294;42.666;23.350;2022-07-29T07:02:25;95169.03;;;27.15;61.02
55424;BME280;41294;42.666;23.350;2022-07-29T07:04:51;95172.97;;;27.89;59.65
55424;BME280;41294;42.666;23.350;2022-07-29T07:07:16;95171.78;;;26.72;62.34
55424;BME280;41294;42.666;23.350;2022-07-29T07:09:41;95179.00;;;26.27;63.01
55424;BME280;41294;42.666;23.350;2022-07-29T07:12:07;95163.25;;;27.11;62.13
55424;BME280;41294;42.666;23.350;2022-07-29T07:14:33;95164.59;;;28.17;58.26
55424;BME280;41294;42.666;23.350;2022-07-29T07:16:58;95167.56;;;27.74;59.59
55424;BME280;41294;42.666;23.350;2022-07-29T07:19:25;95171.53;;;28.49;57.31
55424;BME280;41294;42.666;23.350;2022-07-29T07:21:53;95165.03;;;27.16;60.83
55424;BME280;41294;42.666;23.350;2022-07-29T07:24:18;95165.41;;;27.50;58.95
55424;BME280;41294;42.666;23.350;2022-07-29T07:26:44;95163.09;;;26.59;61.79
55424;BME280;41294;42.666;23.350;2022-07-29T07:29:11;95175.25;;;26.38;61.08
55424;BME280;41294;42.666;23.350;2022-07-29T07:31:37;95165.25;;;26.53;60.80
55424;BME280;41294;42.666;23.350;2022-07-29T07:34:03;95160.09;;;28.12;57.42
55424;BME280;41294;42.666;23.350;2022-07-29T07:36:29;95172.34;;;28.13;55.96
55424;BME280;41294;42.666;23.350;2022-07-29T07:38:54;95154.91;;;26.94;59.32
55424;BME280;41294;42.666;23.350;2022-07-29T07:41:20;95163.25;;;27.41;57.36
55424;BME280;41294;42.666;23.350;2022-07-29T07:43:46;95159.31;;;28.34;56.47
55424;BME280;41294;42.666;23.350;2022-07-29T07:46:12;95160.72;;;27.43;57.29
55424;BME280;41294;42.666;23.350;2022-07-29T07:48:37;95162.53;;;27.18;58.74
55424;BME280;41294;42.666;23.350;2022-07-29T07:51:03;95163.00;;;28.06;57.58
55424;BME280;41294;42.666;23.350;2022-07-29T07:53:28;95165.91;;;26.96;58.42
55424;BME280;41294;42.666;23.350;2022-07-29T07:55:55;95153.34;;;27.21;58.69
55424;BME280;41294;42.666;23.350;2022-07-29T07:58:20;95160.88;;;28.83;55.13
55424;BME280;41294;42.666;23.350;2022-07-29T08:00:46;95155.00;;;29.02;53.01
55424;BME280;41294;42.666;23.350;2022-07-29T08:03:13;95160.34;;;27.54;56.22
55424;BME280;41294;42.666;23.350;2022-07-29T08:05:42;95162.50;;;27.03;58.51
55424;BME280;41294;42.666;23.350;2022-07-29T08:08:07;95162.63;;;28.02;55.73
55424;BME280;41294;42.666;23.350;2022-07-29T08:10:33;95155.13;;;28.47;54.77
55424;BME280;41294;42.666;23.350;2022-07-29T08:13:18;95153.75;;;28.09;54.28
55424;BME280;41294;42.666;23.350;2022-07-29T08:15:44;95162.16;;;27.74;55.38
55424;BME280;41294;42.666;23.350;2022-07-29T08:18:13;95160.31;;;27.99;54.31
55424;BME280;41294;42.666;23.350;2022-07-29T08:20:39;95160.59;;;28.18;54.54
55424;BME280;41294;42.666;23.350;2022-07-29T08:23:07;95153.00;;;28.31;53.84
55424;BME280;41294;42.666;23.350;2022-07-29T08:25:35;95155.66;;;29.10;50.15
55424;BME280;41294;42.666;23.350;2022-07-29T08:28:02;95140.22;;;29.20;51.03
55424;BME280;41294;42.666;23.350;2022-07-29T08:30:28;95143.69;;;28.02;52.95
55424;BME280;41294;42.666;23.350;2022-07-29T08:32:53;95141.75;;;28.42;51.78
55424;BME280;41294;42.666;23.350;2022-07-29T08:35:20;95147.66;;;28.55;51.82
55424;BME280;41294;42.666;23.350;2022-07-29T08:37:45;95141.66;;;28.96;50.13
55424;BME280;41294;42.666;23.350;2022-07-29T08:40:11;95143.31;;;29.16;49.48
55424;BME280;41294;42.666;23.350;2022-07-29T08:42:37;95142.34;;;29.87;48.78
55424;BME280;41294;42.666;23.350;2022-07-29T08:45:04;95135.78;;;30.57;47.04
55424;BME280;41294;42.666;23.350;2022-07-29T08:47:29;95137.47;;;30.53;45.61
55424;BME280;41294;42.666;23.350;2022-07-29T08:49:55;95136.75;;;29.85;46.21
55424;BME280;41294;42.666;23.350;2022-07-29T08:52:21;95130.88;;;30.12;46.62
55424;BME280;41294;42.666;23.350;2022-07-29T08:54:49;95133.88;;;30.50;46.03
55424;BME280;41294;42.666;23.350;2022-07-29T08:57:16;95133.56;;;30.73;45.64
55424;BME280;41294;42.666;23.350;2022-07-29T08:59:42;95140.41;;;29.80;45.15
55424;BME280;41294;42.666;23.350;2022-07-29T09:02:23;95134.84;;;29.61;45.89
55424;BME280;41294;42.666;23.350;2022-07-29T09:04:52;95123.03;;;30.16;45.27
55424;BME280;41294;42.666;23.350;2022-07-29T09:07:18;95131.41;;;29.77;46.19
55424;BME280;41294;42.666;23.350;2022-07-29T09:09:44;95129.19;;;28.93;47.05
55424;BME280;41294;42.666;23.350;2022-07-29T09:12:12;95114.66;;;28.81;47.43
55424;BME280;41294;42.666;23.350;2022-07-29T09:14:38;95120.53;;;28.95;47.55
55424;BME280;41294;42.666;23.350;2022-07-29T09:17:04;95121.56;;;28.99;47.98
55424;BME280;41294;42.666;23.350;2022-07-29T09:19:32;95116.56;;;29.37;46.83
55424;BME280;41294;42.666;23.350;2022-07-29T09:21:59;95120.13;;;29.81;46.79
55424;BME280;41294;42.666;23.350;2022-07-29T09:24:45;95113.53;;;29.33;46.75
55424;BME280;41294;42.666;23.350;2022-07-29T09:27:19;95114.00;;;29.80;46.00
55424;BME280;41294;42.666;23.350;2022-07-29T09:29:47;95115.69;;;29.76;47.54
55424;BME280;41294;42.666;23.350;2022-07-29T09:32:12;95116.63;;;29.71;47.09
55424;BME280;41294;42.666;23.350;2022-07-29T09:34:38;95106.72;;;29.66;46.47
55424;BME280;41294;42.666;23.350;2022-07-29T09:37:04;95114.34;;;30.44;45.93
55424;BME280;41294;42.666;23.350;2022-07-29T09:39:33;95109.28;;;30.14;45.60
55424;BME280;41294;42.666;23.350;2022-07-29T09:42:02;95114.22;;;29.92;46.06
55424;BME280;41294;42.666;23.350;2022-07-29T09:47:08;95113.75;;;29.69;47.55
55424;BME280;41294;42.666;23.350;2022-07-29T09:49:36;95106.72;;;29.83;47.11
55424;BME280;41294;42.666;23.350;2022-07-29T09:52:14;95103.34;;;30.25;46.76
55424;BME280;41294;42.666;23.350;2022-07-29T09:54:40;95104.53;;;30.49;45.69
55424;BME280;41294;42.666;23.350;2022-07-29T09:57:09;95092.16;;;30.91;45.13
55424;BME280;41294;42.666;23.350;2022-07-29T09:59:38;95090.66;;;29.77;46.35
55424;BME280;41294;42.666;23.350;2022-07-29T10:02:14;95088.28;;;30.41;46.75
55424;BME280;41294;42.666;23.350;2022-07-29T10:04:41;95086.50;;;30.27;46.51
55424;BME280;41294;42.666;23.350;2022-07-29T10:07:07;95092.59;;;30.18;47.43
55424;BME280;41294;42.666;23.350;2022-07-29T10:09:33;95091.38;;;29.44;47.60
55424;BME280;41294;42.666;23.350;2022-07-29T10:12:10;95084.59;;;30.03;47.41
55424;BME280;41294;42.666;23.350;2022-07-29T10:14:38;95084.34;;;29.92;46.63
55424;BME280;41294;42.666;23.350;2022-07-29T10:17:05;95077.97;;;29.63;46.70
55424;BME280;41294;42.666;23.350;2022-07-29T10:19:32;95071.88;;;29.89;46.18
55424;BME280;41294;42.666;23.350;2022-07-29T10:21:59;95077.47;;;30.77;44.88
55424;BME280;41294;42.666;23.350;2022-07-29T10:24:27;95067.28;;;30.68;45.37
55424;BME280;41294;42.666;23.350;2022-07-29T10:27:00;95067.91;;;31.21;44.81
55424;BME280;41294;42.666;23.350;2022-07-29T10:29:27;95059.78;;;30.95;45.69
55424;BME280;41294;42.666;23.350;2022-07-29T10:43:33;95052.97;;;31.86;41.27
55424;BME280;41294;42.666;23.350;2022-07-29T10:46:02;95050.81;;;31.76;40.86
55424;BME280;41294;42.666;23.350;2022-07-29T10:48:28;95046.81;;;31.03;43.42
55424;BME280;41294;42.666;23.350;2022-07-29T10:51:04;95033.69;;;30.83;43.65
55424;BME280;41294;42.666;23.350;2022-07-29T10:56:30;95032.47;;;30.93;42.53
55424;BME280;41294;42.666;23.350;2022-07-29T11:01:47;95028.59;;;30.60;44.01
55424;BME280;41294;42.666;23.350;2022-07-29T11:04:13;95024.50;;;31.14;42.52
55424;BME280;41294;42.666;23.350;2022-07-29T11:09:27;95032.31;;;31.55;41.72
55424;BME280;41294;42.666;23.350;2022-07-29T11:11:58;95020.25;;;31.49;42.62
55424;BME280;41294;42.666;23.350;2022-07-29T11:14:59;95016.22;;;31.31;41.80
55424;BME280;41294;42.666;23.350;2022-07-29T11:17:27;95003.66;;;30.99;41.92
55424;BME280;41294;42.666;23.350;2022-07-29T11:20:54;95004.94;;;31.72;40.54
55424;BME280;41294;42.666;23.350;2022-07-29T11:23:24;95002.34;;;31.74;41.62
55424;BME280;41294;42.666;23.350;2022-07-29T11:31:31;95012.47;;;31.17;41.74
55424;BME280;41294;42.666;23.350;2022-07-29T11:39:31;95006.22;;;31.81;41.60
55424;BME280;41294;42.666;23.350;2022-07-29T11:44:59;94989.88;;;32.79;39.96
55424;BME280;41294;42.666;23.350;2022-07-29T11:47:26;94991.84;;;32.18;40.54
55424;BME280;41294;42.666;23.350;2022-07-29T11:49:53;94991.00;;;31.87;41.38
55424;BME280;41294;42.666;23.350;2022-07-29T11:52:20;94993.75;;;31.78;39.84
55424;BME280;41294;42.666;23.350;2022-07-29T11:54:47;94990.16;;;31.66;40.13
55424;BME280;41294;42.666;23.350;2022-07-29T11:57:16;94975.78;;;32.03;39.65
55424;BME280;41294;42.666;23.350;2022-07-29T11:59:43;94979.09;;;32.11;39.95
55424;BME280;41294;42.666;23.350;2022-07-29T12:02:10;94979.34;;;32.64;39.34
55424;BME280;41294;42.666;23.350;2022-07-29T12:04:55;94985.78;;;32.19;39.48
55424;BME280;41294;42.666;23.350;2022-07-29T12:07:31;94983.16;;;32.40;39.48
55424;BME280;41294;42.666;23.350;2022-07-29T12:09:57;94976.19;;;32.88;38.68
55424;BME280;41294;42.666;23.350;2022-07-29T12:12:23;94975.75;;;33.54;38.21
55424;BME280;41294;42.666;23.350;2022-07-29T12:14:49;94984.50;;;33.21;37.96
55424;BME280;41294;42.666;23.350;2022-07-29T12:19:56;94968.47;;;32.85;39.04
55424;BME280;41294;42.666;23.350;2022-07-29T12:24:51;94971.03;;;33.13;38.68
55424;BME280;41294;42.666;23.350;2022-07-29T12:27:17;94970.44;;;33.15;39.18
55424;BME280;41294;42.666;23.350;2022-07-29T12:29:43;94976.34;;;33.53;37.79
55424;BME280;41294;42.666;23.350;2022-07-29T12:32:08;94970.22;;;32.80;38.50
55424;BME280;41294;42.666;23.350;2022-07-29T12:34:34;94966.41;;;33.16;38.70
55424;BME280;41294;42.666;23.350;2022-07-29T12:37:00;94964.91;;;33.03;38.03
55424;BME280;41294;42.666;23.350;2022-07-29T12:39:26;94957.66;;;32.66;38.69
55424;BME280;41294;42.666;23.350;2022-07-29T12:41:53;94963.31;;;32.49;38.17
55424;BME280;41294;42.666;23.350;2022-07-29T12:44:18;94954.03;;;32.73;38.59
55424;BME280;41294;42.666;23.350;2022-07-29T12:46:44;94962.34;;;32.96;38.72
55424;BME280;41294;42.666;23.350;2022-07-29T12:49:21;94958.38;;;33.18;38.32
55424;BME280;41294;42.666;23.350;2022-07-29T12:51:47;94952.38;;;33.10;37.83
55424;BME280;41294;42.666;23.350;2022-07-29T12:54:14;94947.28;;;32.74;38.05
55424;BME280;41294;42.666;23.350;2022-07-29T12:56:42;94945.56;;;33.20;37.54
55424;BME280;41294;42.666;23.350;2022-07-29T12:59:16;94939.91;;;33.28;36.92
55424;BME280;41294;42.666;23.350;2022-07-29T13:01:42;94936.09;;;32.91;37.91
55424;BME280;41294;42.666;23.350;2022-07-29T13:04:07;94929.97;;;32.60;38.64
55424;BME280;41294;42.666;23.350;2022-07-29T13:06:45;94934.44;;;32.86;38.15
55424;BME280;41294;42.666;23.350;2022-07-29T13:09:19;94935.97;;;32.68;38.18
55424;BME280;41294;42.666;23.350;2022-07-29T13:11:47;94930.56;;;32.19;39.35
55424;BME280;41294;42.666;23.350;2022-07-29T13:17:07;94931.72;;;32.56;39.24
55424;BME280;41294;42.666;23.350;2022-07-29T13:21:58;94919.69;;;32.49;39.39
55424;BME280;41294;42.666;23.350;2022-07-29T13:24:25;94919.94;;;32.53;39.59
55424;BME280;41294;42.666;23.350;2022-07-29T13:26:50;94913.50;;;32.49;38.22
55424;BME280;41294;42.666;23.350;2022-07-29T13:29:17;94915.53;;;32.08;39.69
55424;BME280;41294;42.666;23.350;2022-07-29T13:31:43;94908.47;;;32.55;39.72
55424;BME280;41294;42.666;23.350;2022-07-29T13:34:08;94915.47;;;32.58;38.76
55424;BME280;41294;42.666;23.350;2022-07-29T13:36:34;94907.44;;;32.60;39.34
55424;BME280;41294;42.666;23.350;2022-07-29T13:38:59;94907.25;;;32.37;38.92
55424;BME280;41294;42.666;23.350;2022-07-29T13:41:27;94907.06;;;32.44;39.18
55424;BME280;41294;42.666;23.350;2022-07-29T13:43:52;94900.38;;;32.36;38.71
55424;BME280;41294;42.666;23.350;2022-07-29T13:46:18;94902.88;;;32.22;39.01
55424;BME280;41294;42.666;23.350;2022-07-29T13:48:43;94900.16;;;32.13;39.98